Time;durP1;ratioP1;P1;durP2;ratioP2;P2;SDS_P1;SDS_P2;PMS_P1;PMS_P2;Temp;Humidity;BMP_temperature;BMP_pressure;BME280_temperature;BME280_humidity;BME280_pressure;Samples;Min_cycle;Max_cycle;Signal;HPM_P1;HPM_P2
2021/08/17 00:01:28;;;;;;;1.27;0.38;;;13.50;75.20;;;;;;4992791;28;20405;-80
2021/08/17 00:03:54;;;;;;;0.22;0.22;;;13.40;75.20;;;;;;4993910;28;20054;-80
2021/08/17 00:06:19;;;;;;;1.13;0.40;;;13.50;75.30;;;;;;4993874;28;20038;-79
2021/08/17 00:08:46;;;;;;;0.38;0.30;;;13.40;75.30;;;;;;5006938;28;20057;-79
2021/08/17 00:11:11;;;;;;;0.55;0.40;;;13.40;75.40;;;;;;4992168;28;20375;-79
2021/08/17 00:13:37;;;;;;;0.63;0.40;;;13.40;75.40;;;;;;4991458;28;20037;-79
2021/08/17 00:16:03;;;;;;;0.70;0.40;;;13.40;75.40;;;;;;4994174;28;20482;-80
2021/08/17 00:18:29;;;;;;;0.90;0.43;;;13.30;75.40;;;;;;4994168;28;20057;-80
2021/08/17 00:20:55;;;;;;;0.45;0.40;;;13.30;75.40;;;;;;4993627;28;20039;-79
2021/08/17 00:23:21;;;;;;;0.95;0.40;;;13.30;75.50;;;;;;4990907;28;20505;-79
2021/08/17 00:25:46;;;;;;;0.40;0.38;;;13.30;75.50;;;;;;5006684;28;20039;-79
2021/08/17 00:28:12;;;;;;;0.70;0.30;;;13.30;75.60;;;;;;4993891;28;20391;-80
2021/08/17 00:30:39;;;;;;;0.90;0.30;;;13.30;75.60;;;;;;4991238;28;20046;-79
2021/08/17 00:33:05;;;;;;;0.60;0.38;;;13.30;75.70;;;;;;4993837;28;20125;-80
2021/08/17 00:35:30;;;;;;;0.57;0.40;;;13.30;75.70;;;;;;5008828;28;20066;-79
2021/08/17 00:37:56;;;;;;;0.98;0.30;;;13.20;75.70;;;;;;4991647;28;20042;-79
2021/08/17 00:40:22;;;;;;;0.75;0.38;;;13.20;75.70;;;;;;4990799;28;20046;-80
2021/08/17 00:42:48;;;;;;;1.50;0.60;;;13.20;75.80;;;;;;4990620;28;20054;-80
2021/08/17 00:45:24;;;;;;;0.47;0.30;;;13.20;75.90;;;;;;4991931;28;20093;-80
2021/08/17 00:47:52;;;;;;;1.45;0.40;;;13.20;75.90;;;;;;4991405;28;20065;-80
2021/08/17 00:50:19;;;;;;;1.25;0.35;;;13.20;75.90;;;;;;5006707;28;20042;-80
2021/08/17 00:52:45;;;;;;;0.35;0.28;;;13.20;76.00;;;;;;4976162;28;20426;-80
2021/08/17 00:55:14;;;;;;;0.80;0.35;;;13.20;76.00;;;;;;4997885;28;20044;-80
2021/08/17 00:57:41;;;;;;;1.15;0.43;;;13.20;76.00;;;;;;4997596;28;20069;-80
2021/08/17 01:00:09;;;;;;;1.10;0.50;;;13.10;76.00;;;;;;4997329;28;20046;-79
2021/08/17 01:02:35;;;;;;;0.40;0.40;;;13.20;76.00;;;;;;5007368;28;20133;-80
2021/08/17 01:05:04;;;;;;;0.20;0.20;;;13.20;76.10;;;;;;4991106;28;20501;-80
2021/08/17 01:07:30;;;;;;;0.40;0.40;;;13.10;76.00;;;;;;4992953;28;20046;-80
2021/08/17 01:09:56;;;;;;;0.35;0.30;;;13.10;76.00;;;;;;4990578;28;20030;-80
2021/08/17 01:12:22;;;;;;;0.77;0.47;;;13.10;76.00;;;;;;4992898;28;20038;-80
2021/08/17 01:14:48;;;;;;;2.35;0.70;;;13.10;76.00;;;;;;5007771;28;20052;-80
2021/08/17 01:17:18;;;;;;;0.80;0.50;;;13.10;76.10;;;;;;4993216;28;20129;-79
2021/08/17 01:19:45;;;;;;;1.80;0.57;;;13.10;76.10;;;;;;4993128;28;20489;-80
2021/08/17 01:22:10;;;;;;;0.65;0.38;;;13.10;76.10;;;;;;4990568;28;20031;-80
2021/08/17 01:24:36;;;;;;;0.57;0.40;;;13.10;76.20;;;;;;4992618;28;20553;-80
2021/08/17 01:27:02;;;;;;;0.75;0.40;;;13.10;76.20;;;;;;4991006;28;20046;-81
2021/08/17 01:29:28;;;;;;;1.42;0.40;;;13.00;76.20;;;;;;4990225;28;20493;-81
2021/08/17 01:31:57;;;;;;;0.80;0.50;;;13.00;76.20;;;;;;4989809;28;20066;-80
2021/08/17 01:34:23;;;;;;;0.35;0.35;;;13.00;76.30;;;;;;4989661;28;20066;-80
2021/08/17 01:36:49;;;;;;;1.60;0.45;;;13.00;76.40;;;;;;4991183;28;20066;-81
2021/08/17 01:39:16;;;;;;;0.22;0.20;;;12.90;76.40;;;;;;4993134;28;20049;-81
2021/08/17 01:41:43;;;;;;;0.88;0.38;;;12.90;76.40;;;;;;4990053;28;20038;-80
2021/08/17 01:44:12;;;;;;;0.22;0.20;;;12.90;76.50;;;;;;4990264;28;20030;-80
2021/08/17 01:46:46;;;;;;;0.68;0.32;;;12.90;76.50;;;;;;5005768;28;20085;-80
2021/08/17 01:49:14;;;;;;;1.50;0.50;;;12.90;76.70;;;;;;4993217;28;20030;-80
2021/08/17 01:51:40;;;;;;;0.65;0.35;;;12.80;76.70;;;;;;4991328;28;20065;-80
2021/08/17 01:54:07;;;;;;;0.50;0.30;;;12.70;76.80;;;;;;4992910;28;20066;-80
2021/08/17 01:56:33;;;;;;;0.40;0.40;;;12.70;77.50;;;;;;4991506;28;20410;-80
2021/08/17 01:59:03;;;;;;;0.35;0.30;;;12.70;77.00;;;;;;5009740;28;20034;-81
2021/08/17 02:01:29;;;;;;;0.45;0.30;;;12.60;77.10;;;;;;4993266;28;20026;-81
2021/08/17 02:03:55;;;;;;;0.30;0.30;;;12.60;77.20;;;;;;4992771;28;20041;-80
2021/08/17 02:06:21;;;;;;;0.82;0.57;;;12.60;77.30;;;;;;4995732;28;20059;-81
2021/08/17 02:08:47;;;;;;;0.93;0.30;;;12.60;77.40;;;;;;4993788;28;20363;-81
2021/08/17 02:11:12;;;;;;;1.52;0.60;;;12.60;77.50;;;;;;4995742;28;20066;-81
2021/08/17 02:13:38;;;;;;;0.35;0.30;;;12.50;77.50;;;;;;4994073;28;20053;-80
2021/08/17 02:16:04;;;;;;;0.52;0.30;;;12.50;77.70;;;;;;4995816;28;20069;-81
2021/08/17 02:18:32;;;;;;;0.38;0.38;;;12.50;77.80;;;;;;5009226;28;20043;-81
2021/08/17 02:20:59;;;;;;;0.60;0.40;;;12.40;77.80;;;;;;5008861;28;20050;-80
2021/08/17 02:23:26;;;;;;;0.60;0.40;;;12.40;77.90;;;;;;5010282;28;20081;-80
2021/08/17 02:25:52;;;;;;;1.48;0.30;;;12.50;78.00;;;;;;4994140;28;20057;-81
2021/08/17 02:28:19;;;;;;;0.40;0.35;;;12.40;78.00;;;;;;4992805;28;20072;-80
2021/08/17 02:30:46;;;;;;;0.95;0.40;;;12.40;78.10;;;;;;4992575;28;20038;-81
2021/08/17 02:33:12;;;;;;;0.90;0.28;;;12.30;78.10;;;;;;5010119;28;20490;-81
2021/08/17 02:35:38;;;;;;;0.70;0.45;;;12.30;78.20;;;;;;4993374;28;20050;-81
2021/08/17 02:38:05;;;;;;;0.38;0.28;;;12.30;78.30;;;;;;4992714;28;20100;-81
2021/08/17 02:40:31;;;;;;;1.00;0.50;;;12.30;78.40;;;;;;4992408;28;20521;-81
2021/08/17 02:42:57;;;;;;;1.05;0.50;;;12.20;78.40;;;;;;4993719;28;20138;-81
2021/08/17 02:45:23;;;;;;;0.70;0.52;;;12.30;78.60;;;;;;5009674;28;20939;-80
2021/08/17 02:47:49;;;;;;;0.70;0.40;;;12.30;78.60;;;;;;4994923;28;20125;-81
2021/08/17 02:50:15;;;;;;;0.70;0.40;;;12.20;78.70;;;;;;4991910;28;20041;-81
2021/08/17 02:52:40;;;;;;;1.42;0.50;;;12.20;78.80;;;;;;4995290;28;20074;-80
2021/08/17 02:55:08;;;;;;;1.67;0.70;;;12.20;78.80;;;;;;4976602;28;20432;-80
2021/08/17 02:57:33;;;;;;;0.95;0.40;;;12.20;78.90;;;;;;4992327;28;20038;-81
2021/08/17 02:59:59;;;;;;;0.40;0.40;;;12.10;78.80;;;;;;5010364;28;20383;-81
2021/08/17 03:02:25;;;;;;;0.57;0.40;;;12.20;78.90;;;;;;5009187;28;20494;-80
2021/08/17 03:04:50;;;;;;;0.68;0.50;;;12.20;78.90;;;;;;4992141;28;20395;-81
2021/08/17 03:07:16;;;;;;;0.52;0.35;;;12.10;78.90;;;;;;5007293;28;20080;-81
2021/08/17 03:09:42;;;;;;;0.90;0.55;;;12.10;78.90;;;;;;4995095;28;20054;-81
2021/08/17 03:12:08;;;;;;;0.68;0.47;;;12.10;79.00;;;;;;4994815;28;20096;-81
2021/08/17 03:14:33;;;;;;;0.35;0.20;;;12.10;79.10;;;;;;4991579;28;20038;-80
2021/08/17 03:16:59;;;;;;;0.75;0.47;;;12.10;79.10;;;;;;4994743;28;20062;-81
2021/08/17 03:19:25;;;;;;;1.38;0.32;;;12.10;79.10;;;;;;4994564;28;20034;-81
2021/08/17 03:21:50;;;;;;;1.15;0.65;;;12.10;79.20;;;;;;4992268;28;20092;-81
2021/08/17 03:24:16;;;;;;;0.90;0.43;;;12.10;79.20;;;;;;5009655;28;20038;-80
2021/08/17 03:26:42;;;;;;;0.55;0.50;;;12.10;79.30;;;;;;4995036;28;20631;-80
2021/08/17 03:29:08;;;;;;;1.50;0.60;;;12.10;79.30;;;;;;4992048;28;20505;-80
2021/08/17 03:31:33;;;;;;;0.82;0.52;;;12.10;79.30;;;;;;5009880;28;20537;-80
2021/08/17 03:33:59;;;;;;;0.70;0.50;;;12.10;79.30;;;;;;4992346;28;20046;-80
2021/08/17 03:36:25;;;;;;;0.82;0.60;;;12.10;79.40;;;;;;5007977;28;20050;-81
2021/08/17 03:38:51;;;;;;;2.10;0.45;;;12.10;79.40;;;;;;4991188;28;20038;-80
2021/08/17 03:41:17;;;;;;;0.65;0.40;;;12.10;79.50;;;;;;4992966;28;20471;-80
2021/08/17 03:43:43;;;;;;;0.38;0.30;;;12.10;79.60;;;;;;4991983;28;20043;-80
2021/08/17 03:46:09;;;;;;;0.93;0.50;;;12.10;79.60;;;;;;5007695;28;20046;-80
2021/08/17 03:48:35;;;;;;;0.60;0.40;;;12.10;79.60;;;;;;4994478;28;20034;-80
2021/08/17 03:51:00;;;;;;;0.90;0.60;;;12.10;79.70;;;;;;4994111;28;20096;-80
2021/08/17 03:53:27;;;;;;;1.15;0.68;;;12.20;79.80;;;;;;4994491;28;20121;-81
2021/08/17 03:55:53;;;;;;;0.60;0.50;;;12.20;79.70;;;;;;4993942;28;20042;-81
2021/08/17 03:58:18;;;;;;;1.05;0.63;;;12.20;80.10;;;;;;5008752;28;20136;-81
2021/08/17 04:00:44;;;;;;;0.73;0.50;;;12.20;79.70;;;;;;4991637;28;20069;-81
2021/08/17 04:03:10;;;;;;;0.50;0.40;;;12.20;79.70;;;;;;4991369;28;20042;-81
2021/08/17 04:05:36;;;;;;;2.25;0.90;;;12.20;79.70;;;;;;4990585;28;20106;-81
2021/08/17 04:08:04;;;;;;;0.77;0.50;;;12.30;79.80;;;;;;5008740;28;20498;-80
2021/08/17 04:10:30;;;;;;;1.00;0.68;;;12.30;79.80;;;;;;4993830;28;20042;-81
2021/08/17 04:12:56;;;;;;;0.57;0.50;;;12.30;79.90;;;;;;5007700;28;20112;-80
2021/08/17 04:15:22;;;;;;;0.98;0.43;;;12.30;79.80;;;;;;4992644;28;20034;-80
2021/08/17 04:17:47;;;;;;;0.90;0.52;;;12.40;79.90;;;;;;4992688;28;20050;-80
2021/08/17 04:20:14;;;;;;;1.50;0.50;;;12.40;79.90;;;;;;4990329;28;20443;-80
2021/08/17 04:22:40;;;;;;;1.13;0.50;;;12.50;80.00;;;;;;4991020;28;20042;-80
2021/08/17 04:25:07;;;;;;;0.73;0.50;;;12.50;80.00;;;;;;4991924;28;20052;-81
2021/08/17 04:27:33;;;;;;;0.60;0.40;;;12.40;80.00;;;;;;4991654;28;20458;-81
2021/08/17 04:29:58;;;;;;;1.10;0.70;;;12.50;80.00;;;;;;5007310;28;20085;-80
2021/08/17 04:32:24;;;;;;;0.90;0.63;;;12.50;80.00;;;;;;4990292;28;20173;-80
2021/08/17 04:34:50;;;;;;;2.17;0.50;;;12.50;80.00;;;;;;4993570;28;20053;-80
2021/08/17 04:37:15;;;;;;;1.02;0.68;;;12.50;80.00;;;;;;4991441;28;20474;-80
2021/08/17 04:39:41;;;;;;;0.60;0.60;;;12.70;80.10;;;;;;4990838;28;20038;-81
2021/08/17 04:42:07;;;;;;;0.68;0.40;;;12.60;80.00;;;;;;4975523;28;20034;-80
2021/08/17 04:44:34;;;;;;;0.77;0.52;;;12.70;80.10;;;;;;4991718;28;20092;-81
2021/08/17 04:47:00;;;;;;;1.23;0.77;;;12.80;80.10;;;;;;4990708;28;20501;-81
2021/08/17 04:49:26;;;;;;;1.23;0.47;;;12.70;80.10;;;;;;4990410;28;20038;-80
2021/08/17 04:51:51;;;;;;;0.40;0.40;;;12.80;80.10;;;;;;4993122;28;20402;-80
2021/08/17 04:54:17;;;;;;;0.65;0.60;;;12.80;80.10;;;;;;4990882;28;20042;-80
2021/08/17 04:56:43;;;;;;;0.80;0.50;;;12.90;80.10;;;;;;4990608;28;20050;-80
2021/08/17 04:59:09;;;;;;;1.00;0.70;;;12.80;80.10;;;;;;4991503;28;20046;-81
2021/08/17 05:01:35;;;;;;;0.70;0.60;;;12.90;80.10;;;;;;4990838;28;20414;-80
2021/08/17 05:04:03;;;;;;;0.90;0.63;;;13.00;80.10;;;;;;5007073;28;20038;-80
2021/08/17 05:06:28;;;;;;;1.27;0.60;;;13.00;80.10;;;;;;5006794;28;20050;-81
2021/08/17 05:08:54;;;;;;;0.63;0.55;;;13.00;80.40;;;;;;5008049;28;20070;-80
2021/08/17 05:11:20;;;;;;;1.20;0.80;;;13.10;80.10;;;;;;4990909;28;20458;-80
2021/08/17 05:13:46;;;;;;;1.08;0.60;;;13.20;80.20;;;;;;4990286;28;20513;-80
2021/08/17 05:16:11;;;;;;;1.38;0.80;;;13.20;80.20;;;;;;4991583;28;20049;-80
2021/08/17 05:18:38;;;;;;;1.52;0.80;;;13.20;80.20;;;;;;4992648;28;20069;-80
2021/08/17 05:21:04;;;;;;;2.70;1.17;;;13.30;80.30;;;;;;4993064;28;20038;-80
2021/08/17 05:23:30;;;;;;;2.05;1.20;;;13.30;80.30;;;;;;5006141;28;20162;-80
2021/08/17 05:25:56;;;;;;;1.40;1.00;;;13.30;80.30;;;;;;4992696;28;20058;-80
2021/08/17 05:28:22;;;;;;;3.47;1.20;;;13.30;80.20;;;;;;4992807;28;20034;-80
2021/08/17 05:30:48;;;;;;;2.63;1.10;;;13.40;80.30;;;;;;4989908;28;20030;-80
2021/08/17 05:33:14;;;;;;;2.45;1.40;;;13.40;80.30;;;;;;4993165;28;20081;-80
2021/08/17 05:35:42;;;;;;;2.25;1.30;;;13.50;80.40;;;;;;4991503;28;20046;-80
2021/08/17 05:38:08;;;;;;;4.65;1.60;;;13.50;80.40;;;;;;4992350;28;20516;-80
2021/08/17 05:40:34;;;;;;;3.00;1.30;;;13.60;80.40;;;;;;4989807;28;20038;-80
2021/08/17 05:43:00;;;;;;;3.00;1.45;;;13.60;80.40;;;;;;5007760;28;20053;-80
2021/08/17 05:45:25;;;;;;;4.15;1.67;;;13.70;80.40;;;;;;4990573;28;20129;-80
2021/08/17 05:47:51;;;;;;;4.10;1.70;;;13.80;80.40;;;;;;4990062;28;20030;-80
2021/08/17 05:50:17;;;;;;;3.35;1.70;;;13.80;80.30;;;;;;4989844;28;20039;-80
2021/08/17 05:52:44;;;;;;;3.70;1.70;;;13.90;80.30;;;;;;4990518;28;20043;-80
2021/08/17 05:55:11;;;;;;;3.33;1.60;;;14.10;80.30;;;;;;4992191;28;20129;-80
2021/08/17 05:57:37;;;;;;;3.75;1.60;;;14.10;80.30;;;;;;4989721;28;20046;-80
2021/08/17 06:00:04;;;;;;;4.18;1.92;;;14.10;80.30;;;;;;4992766;28;20042;-80
2021/08/17 06:02:30;;;;;;;3.78;1.85;;;14.20;80.30;;;;;;4992802;28;20046;-80
2021/08/17 06:04:56;;;;;;;4.93;2.00;;;14.20;80.30;;;;;;4989874;28;20402;-81
2021/08/17 06:07:21;;;;;;;5.63;2.20;;;14.20;80.30;;;;;;5006510;28;20124;-80
2021/08/17 06:09:47;;;;;;;4.18;2.15;;;14.30;80.40;;;;;;4991017;28;20098;-80
2021/08/17 06:12:13;;;;;;;3.83;1.80;;;14.40;80.50;;;;;;4990395;28;20057;-80
2021/08/17 06:14:38;;;;;;;3.75;2.00;;;14.40;80.50;;;;;;4992573;28;20046;-80
2021/08/17 06:17:05;;;;;;;4.82;2.05;;;14.40;80.50;;;;;;4992781;28;20041;-80
2021/08/17 06:19:30;;;;;;;4.25;2.08;;;14.50;80.60;;;;;;4992440;28;20089;-79
2021/08/17 06:21:56;;;;;;;3.53;1.63;;;14.50;80.60;;;;;;4992572;28;20030;-80
2021/08/17 06:24:22;;;;;;;4.47;2.17;;;14.60;80.60;;;;;;4989148;28;20061;-80
2021/08/17 06:26:48;;;;;;;3.10;1.63;;;14.70;80.60;;;;;;4992495;28;20042;-80
2021/08/17 06:29:15;;;;;;;4.07;1.80;;;14.70;80.50;;;;;;4991834;28;20062;-80
2021/08/17 06:31:41;;;;;;;4.63;2.25;;;14.90;81.10;;;;;;4990231;28;20117;-80
2021/08/17 06:34:07;;;;;;;4.80;2.10;;;14.90;80.40;;;;;;4991939;28;20402;-80
2021/08/17 06:36:35;;;;;;;4.15;2.17;;;15.00;80.40;;;;;;4990176;28;20051;-80
2021/08/17 06:39:02;;;;;;;4.47;2.13;;;15.00;80.40;;;;;;4989927;28;20073;-80
2021/08/17 06:41:28;;;;;;;3.70;1.70;;;15.00;80.50;;;;;;4989410;28;20183;-80
2021/08/17 06:43:54;;;;;;;4.88;2.08;;;15.10;80.50;;;;;;4995022;28;20050;-80
2021/08/17 06:46:19;;;;;;;3.78;2.03;;;15.10;80.40;;;;;;4993443;28;20050;-80
2021/08/17 06:48:45;;;;;;;4.88;2.22;;;15.20;80.50;;;;;;4993232;28;20117;-80
2021/08/17 06:51:11;;;;;;;3.65;2.00;;;15.20;80.50;;;;;;4992364;28;20486;-80
2021/08/17 06:53:38;;;;;;;5.18;2.05;;;15.30;80.60;;;;;;4993699;28;20041;-80
2021/08/17 06:56:04;;;;;;;4.15;2.22;;;15.30;80.50;;;;;;4995178;28;20058;-80
2021/08/17 06:58:30;;;;;;;5.15;2.40;;;15.30;80.50;;;;;;4992566;28;20495;-80
2021/08/17 07:00:57;;;;;;;4.47;2.00;;;15.60;80.60;;;;;;4992018;28;20046;-80
2021/08/17 07:03:23;;;;;;;4.38;2.15;;;15.50;80.60;;;;;;4995386;28;20132;-80
2021/08/17 07:05:48;;;;;;;4.60;2.20;;;15.50;80.60;;;;;;5009010;28;20046;-80
2021/08/17 07:08:15;;;;;;;5.05;2.45;;;15.50;80.60;;;;;;5008546;28;20042;-80
2021/08/17 07:10:42;;;;;;;6.07;2.55;;;15.50;80.80;;;;;;5008583;28;20097;-81
2021/08/17 07:13:08;;;;;;;5.55;2.40;;;15.50;80.90;;;;;;4993825;28;20131;-81
2021/08/17 07:15:34;;;;;;;5.18;2.45;;;15.50;81.00;;;;;;5009559;28;20092;-80
2021/08/17 07:17:59;;;;;;;5.15;2.40;;;15.50;81.00;;;;;;5008250;28;20074;-80
2021/08/17 07:20:25;;;;;;;5.47;2.13;;;15.50;81.10;;;;;;5009758;28;20402;-80
2021/08/17 07:22:51;;;;;;;4.72;2.58;;;15.60;81.20;;;;;;4994633;28;20046;-81
2021/08/17 07:25:17;;;;;;;4.80;2.40;;;15.60;81.10;;;;;;4992054;28;20042;-80
2021/08/17 07:27:43;;;;;;;3.45;2.00;;;15.70;81.20;;;;;;4991610;28;20034;-80
2021/08/17 07:30:12;;;;;;;5.35;1.95;;;15.70;81.20;;;;;;4992720;28;20398;-80
2021/08/17 07:32:39;;;;;;;4.45;2.28;;;15.80;81.20;;;;;;4994320;28;20063;-81
2021/08/17 07:35:09;;;;;;;5.88;2.33;;;15.80;81.80;;;;;;4994162;28;20050;-80
2021/08/17 07:37:35;;;;;;;4.18;2.17;;;15.80;81.10;;;;;;4992443;28;20049;-80
2021/08/17 07:40:03;;;;;;;3.63;2.25;;;15.90;81.20;;;;;;4991822;28;20046;-80
2021/08/17 07:42:28;;;;;;;3.63;1.95;;;15.90;81.20;;;;;;4991053;28;20043;-80
2021/08/17 07:44:54;;;;;;;4.50;2.20;;;16.00;81.20;;;;;;4992477;28;20073;-80
2021/08/17 07:47:20;;;;;;;4.18;2.10;;;16.00;81.70;;;;;;4991642;28;20545;-80
2021/08/17 07:49:46;;;;;;;3.47;1.75;;;16.10;81.20;;;;;;4994292;28;20486;-80
2021/08/17 07:52:11;;;;;;;4.72;2.30;;;16.10;81.10;;;;;;5008748;28;20038;-80
2021/08/17 07:54:37;;;;;;;3.63;1.98;;;16.20;81.00;;;;;;4992938;28;20394;-80
2021/08/17 07:57:04;;;;;;;5.88;2.20;;;16.30;80.90;;;;;;4991684;28;20126;-81
2021/08/17 07:59:30;;;;;;;5.55;2.55;;;16.30;80.70;;;;;;4990957;28;20121;-80
2021/08/17 08:01:55;;;;;;;4.60;2.30;;;16.40;80.80;;;;;;4993970;28;20525;-80
2021/08/17 08:04:21;;;;;;;4.50;2.40;;;16.50;80.80;;;;;;4991755;28;20122;-80
2021/08/17 08:06:47;;;;;;;3.83;2.35;;;16.60;80.50;;;;;;5007742;28;20064;-79
2021/08/17 08:09:13;;;;;;;5.22;2.53;;;16.70;80.40;;;;;;4992288;28;20395;-81
2021/08/17 08:11:39;;;;;;;7.25;2.95;;;16.80;80.30;;;;;;4991786;28;20043;-81
2021/08/17 08:14:05;;;;;;;4.35;2.40;;;16.80;80.20;;;;;;4991512;28;20100;-80
2021/08/17 08:16:30;;;;;;;4.55;2.38;;;16.80;80.20;;;;;;4990555;28;20098;-80
2021/08/17 08:18:56;;;;;;;4.55;2.30;;;16.90;80.30;;;;;;4991705;28;20054;-80
2021/08/17 08:21:22;;;;;;;4.18;2.17;;;16.90;80.40;;;;;;4993732;28;20049;-81
2021/08/17 08:23:48;;;;;;;4.80;2.30;;;16.90;80.40;;;;;;4990469;28;20045;-81
2021/08/17 08:26:13;;;;;;;4.30;2.22;;;17.00;80.50;;;;;;4993871;28;20453;-82
2021/08/17 08:28:40;;;;;;;4.72;2.30;;;17.00;80.50;;;;;;4993439;28;20041;-81
2021/08/17 08:31:06;;;;;;;5.80;2.42;;;17.10;80.60;;;;;;5007227;28;20042;-81
2021/08/17 08:33:32;;;;;;;4.28;2.30;;;17.10;80.40;;;;;;4992282;28;20097;-80
2021/08/17 08:35:58;;;;;;;7.40;2.50;;;17.20;80.50;;;;;;5008535;28;20085;-80
2021/08/17 08:38:23;;;;;;;4.85;2.53;;;17.10;80.40;;;;;;4993861;28;20042;-80
2021/08/17 08:40:51;;;;;;;4.75;2.58;;;17.10;80.40;;;;;;4990978;28;20038;-81
2021/08/17 08:43:19;;;;;;;5.50;2.30;;;17.10;80.40;;;;;;5008837;28;20046;-81
2021/08/17 08:45:47;;;;;;;4.47;2.40;;;17.10;80.40;;;;;;5007765;28;20058;-80
2021/08/17 08:48:14;;;;;;;5.82;2.72;;;17.10;80.50;;;;;;4993153;28;20072;-81
2021/08/17 08:50:42;;;;;;;4.13;2.28;;;17.10;80.60;;;;;;4993180;28;20043;-81
2021/08/17 08:53:09;;;;;;;4.63;2.22;;;17.10;80.60;;;;;;5007067;28;20471;-81
2021/08/17 08:55:35;;;;;;;3.60;1.70;;;17.10;80.70;;;;;;4993732;28;20041;-80
2021/08/17 08:58:00;;;;;;;3.95;1.88;;;17.10;80.70;;;;;;4991776;28;20054;-82
2021/08/17 09:00:26;;;;;;;3.65;2.10;;;17.20;80.80;;;;;;4993167;28;20383;-81
2021/08/17 09:02:52;;;;;;;4.15;2.25;;;17.20;80.80;;;;;;4993269;28;20487;-81
2021/08/17 09:05:21;;;;;;;4.28;2.20;;;17.10;80.80;;;;;;4992514;28;20041;-80
2021/08/17 09:07:48;;;;;;;4.43;2.03;;;17.10;80.90;;;;;;4991575;28;20073;-80
2021/08/17 09:10:17;;;;;;;4.00;2.03;;;17.00;81.10;;;;;;4990536;28;20073;-80
2021/08/17 09:12:46;;;;;;;4.45;2.15;;;17.00;81.20;;;;;;5007231;28;20042;-82
2021/08/17 09:15:30;;;;;;;4.82;2.10;;;17.00;81.10;;;;;;4990589;28;20045;-80
2021/08/17 09:18:06;;;;;;;3.42;1.95;;;17.00;81.10;;;;;;5006911;28;20043;-79
2021/08/17 09:20:40;;;;;;;3.55;1.90;;;17.00;81.10;;;;;;4992822;28;20046;-80
2021/08/17 09:23:19;;;;;;;3.88;1.92;;;17.00;81.00;;;;;;4991464;28;20077;-81
2021/08/17 09:25:45;;;;;;;5.53;2.35;;;17.10;81.00;;;;;;4992741;28;20043;-80
2021/08/17 09:28:33;;;;;;;3.67;2.00;;;17.10;80.90;;;;;;4992957;28;20038;-81
2021/08/17 09:31:01;;;;;;;3.75;1.88;;;17.20;80.90;;;;;;5006633;28;20486;-80
2021/08/17 09:33:37;;;;;;;4.03;2.00;;;17.10;80.70;;;;;;4989959;28;20503;-80
2021/08/17 09:36:03;;;;;;;4.88;1.90;;;17.20;80.70;;;;;;5006659;28;20041;-79
2021/08/17 09:38:31;;;;;;;4.40;2.33;;;17.20;80.60;;;;;;4990529;28;20030;-81
2021/08/17 09:40:59;;;;;;;3.72;1.85;;;17.30;80.60;;;;;;4990046;28;20038;-80
2021/08/17 09:43:26;;;;;;;3.70;2.08;;;17.30;80.40;;;;;;4991334;28;20054;-80
2021/08/17 09:45:52;;;;;;;3.75;1.90;;;17.40;80.20;;;;;;4990965;28;20050;-80
2021/08/17 09:48:31;;;;;;;3.40;2.13;;;17.50;80.70;;;;;;4975952;28;20137;-81
2021/08/17 09:50:57;;;;;;;3.03;1.60;;;17.50;80.00;;;;;;5008254;28;20116;-80
2021/08/17 09:53:23;;;;;;;2.90;1.77;;;17.60;79.80;;;;;;4992128;28;20457;-81
2021/08/17 09:55:52;;;;;;;4.03;1.95;;;17.70;79.60;;;;;;4992792;28;20053;-81
2021/08/17 09:58:22;;;;;;;2.72;1.70;;;17.60;79.40;;;;;;4990166;28;20039;-81
2021/08/17 10:00:49;;;;;;;4.45;2.10;;;17.60;79.50;;;;;;4992159;28;20052;-81
2021/08/17 10:03:16;;;;;;;5.57;2.25;;;17.60;79.50;;;;;;5007985;28;20053;-81
2021/08/17 10:05:42;;;;;;;4.95;2.00;;;17.60;79.70;;;;;;4992525;28;20078;-82
2021/08/17 10:08:11;;;;;;;4.90;2.28;;;17.60;79.70;;;;;;4990981;28;20050;-81
2021/08/17 10:10:40;;;;;;;4.20;2.33;;;17.60;79.70;;;;;;4991441;28;20039;-80
2021/08/17 10:13:11;;;;;;;3.50;1.73;;;17.50;80.30;;;;;;4990469;28;20034;-81
2021/08/17 10:15:38;;;;;;;4.05;2.13;;;17.60;79.80;;;;;;4993104;28;20047;-80
2021/08/17 10:18:07;;;;;;;4.13;1.80;;;17.60;79.80;;;;;;4991641;28;20049;-82
2021/08/17 10:20:33;;;;;;;4.20;2.20;;;17.60;79.70;;;;;;4995952;28;20050;-79
2021/08/17 10:23:00;;;;;;;3.50;1.90;;;17.60;79.60;;;;;;4996234;28;20089;-81
2021/08/17 10:25:26;;;;;;;3.70;2.00;;;17.60;79.60;;;;;;4995459;28;20093;-82
2021/08/17 10:27:51;;;;;;;3.20;1.83;;;17.70;79.70;;;;;;4994181;28;20093;-81
2021/08/17 10:30:23;;;;;;;2.92;1.90;;;17.70;79.50;;;;;;4993007;28;20075;-80
2021/08/17 10:32:55;;;;;;;2.60;1.58;;;17.70;79.40;;;;;;4993820;28;20027;-79
2021/08/17 10:35:33;;;;;;;4.60;2.03;;;17.70;79.30;;;;;;4994357;28;20111;-79
2021/08/17 10:38:32;;;;;;;2.90;1.80;;;17.70;79.20;;;;;;4995167;28;20046;-81
2021/08/17 10:41:02;;;;;;;3.13;1.55;;;17.70;79.30;;;;;;4996125;28;20050;-79
2021/08/17 10:44:05;;;;;;;1.73;1.45;;;17.50;79.40;;;;;;5010987;28;20501;-79
2021/08/17 10:46:43;;;;;;;3.33;1.92;;;17.60;79.60;;;;;;5001304;28;20046;-80
2021/08/17 10:49:26;;;;;;;4.05;1.92;;;17.50;79.50;;;;;;5001252;28;20069;-79
2021/08/17 10:51:55;;;;;;;3.17;1.70;;;17.50;79.50;;;;;;5008668;28;20047;-79
2021/08/17 10:54:21;;;;;;;3.60;1.73;;;17.50;79.60;;;;;;4996552;28;20080;-79
2021/08/17 10:56:48;;;;;;;2.35;1.60;;;17.40;79.70;;;;;;4995025;28;20078;-79
2021/08/17 10:59:34;;;;;;;2.70;1.50;;;17.40;79.80;;;;;;4994890;28;20051;-80
2021/08/17 11:02:00;;;;;;;3.35;1.52;;;17.50;79.80;;;;;;4993852;28;20047;-81
2021/08/17 11:04:36;;;;;;;3.60;1.48;;;17.40;79.70;;;;;;4992702;28;20048;-80
2021/08/17 11:07:22;;;;;;;3.17;1.63;;;17.40;79.60;;;;;;4993644;28;20057;-81
2021/08/17 11:09:48;;;;;;;2.08;1.40;;;17.40;79.50;;;;;;4991772;28;20134;-81
2021/08/17 11:12:14;;;;;;;1.75;1.20;;;17.40;79.50;;;;;;4995218;28;20498;-79
2021/08/17 11:14:42;;;;;;;2.03;1.25;;;17.30;79.60;;;;;;4992317;28;20046;-79
2021/08/17 11:17:11;;;;;;;2.80;1.27;;;17.20;79.80;;;;;;5008292;28;20049;-79
2021/08/17 11:19:40;;;;;;;1.58;1.00;;;17.20;79.90;;;;;;4995298;28;20037;-79
2021/08/17 11:22:09;;;;;;;2.25;1.40;;;17.10;79.90;;;;;;4993911;28;20459;-80
2021/08/17 11:24:38;;;;;;;1.95;1.00;;;17.10;79.90;;;;;;4994730;28;20038;-79
2021/08/17 11:27:11;;;;;;;1.75;1.05;;;17.10;79.90;;;;;;4994746;28;20486;-79
2021/08/17 11:29:50;;;;;;;2.55;1.20;;;17.00;79.90;;;;;;5007381;28;20034;-79
2021/08/17 11:32:38;;;;;;;2.38;1.23;;;17.10;80.00;;;;;;4992927;28;20129;-81
2021/08/17 11:35:14;;;;;;;1.90;1.30;;;17.00;79.90;;;;;;5010693;28;20042;-80
2021/08/17 11:37:43;;;;;;;1.88;1.10;;;16.90;80.10;;;;;;4992166;28;20049;-79
2021/08/17 11:40:12;;;;;;;3.35;1.40;;;16.80;80.30;;;;;;4994327;28;20047;-81
2021/08/17 11:42:41;;;;;;;1.48;1.10;;;16.80;80.40;;;;;;5007823;28;20050;-80
2021/08/17 11:45:11;;;;;;;2.00;1.00;;;16.70;80.50;;;;;;4991154;28;20054;-80
2021/08/17 11:47:39;;;;;;;1.23;1.00;;;16.70;80.60;;;;;;4993413;28;20153;-81
2021/08/17 11:50:08;;;;;;;2.53;1.17;;;16.60;80.70;;;;;;4993066;28;20038;-80
2021/08/17 11:52:38;;;;;;;1.92;1.10;;;16.60;80.90;;;;;;4993018;28;20192;-82
2021/08/17 11:55:10;;;;;;;1.00;0.90;;;16.50;81.10;;;;;;4992367;28;20073;-82
2021/08/17 11:57:38;;;;;;;1.23;0.90;;;16.50;81.30;;;;;;4992802;28;20044;-82
2021/08/17 12:00:10;;;;;;;1.77;1.00;;;16.40;81.30;;;;;;4992314;28;20455;-82
2021/08/17 12:02:36;;;;;;;2.03;0.93;;;16.40;82.20;;;;;;4993201;28;20046;-82
2021/08/17 12:05:06;;;;;;;1.38;0.77;;;16.30;81.60;;;;;;4991917;28;20482;-82
2021/08/17 12:07:32;;;;;;;1.80;0.95;;;16.30;81.80;;;;;;4991993;28;20046;-83
2021/08/17 12:10:09;;;;;;;2.00;1.23;;;16.20;81.90;;;;;;4992026;28;20042;-82
2021/08/17 12:13:10;;;;;;;1.55;0.80;;;16.10;82.10;;;;;;4992079;28;20044;-83
2021/08/17 12:15:40;;;;;;;1.35;0.80;;;16.00;82.30;;;;;;4993857;28;20061;-82
2021/08/17 12:18:09;;;;;;;1.30;1.00;;;16.00;82.50;;;;;;4992158;28;20031;-82
2021/08/17 12:20:39;;;;;;;1.83;0.85;;;15.90;82.50;;;;;;4991889;28;20062;-82
2021/08/17 12:23:26;;;;;;;1.27;0.90;;;15.80;82.60;;;;;;4991821;28;20034;-80
2021/08/17 12:25:55;;;;;;;1.15;0.77;;;15.80;82.80;;;;;;4991946;28;20544;-80
2021/08/17 12:28:27;;;;;;;0.98;0.75;;;15.80;82.90;;;;;;4976156;28;20050;-80
2021/08/17 12:31:31;;;;;;;1.70;1.00;;;15.80;83.00;;;;;;4993716;28;20050;-81
2021/08/17 12:34:00;;;;;;;1.77;0.90;;;15.90;83.20;;;;;;4991299;28;20096;-81
2021/08/17 12:36:47;;;;;;;0.70;0.70;;;15.70;83.00;;;;;;4992435;28;20047;-81
2021/08/17 12:39:28;;;;;;;0.77;0.63;;;15.70;83.10;;;;;;4992459;28;20038;-82
2021/08/17 12:41:56;;;;;;;0.52;0.50;;;15.70;83.10;;;;;;4991428;28;20060;-82
2021/08/17 12:44:25;;;;;;;1.67;0.70;;;15.70;83.20;;;;;;4992038;28;20046;-82
2021/08/17 12:47:25;;;;;;;1.63;1.10;;;15.70;83.30;;;;;;4991669;28;20104;-81
2021/08/17 12:49:58;;;;;;;2.03;0.90;;;15.70;83.40;;;;;;4994177;28;20042;-83
2021/08/17 12:52:42;;;;;;;1.35;0.80;;;15.60;83.30;;;;;;5007685;28;20053;-83